createdAt,value
2019-01-04T00:01:23.056Z,4.37
2019-01-04T00:03:52.379Z,4.55
2019-01-04T00:06:20.342Z,4.15
2019-01-04T00:08:48.752Z,4.60
2019-01-04T00:11:16.711Z,4.55
2019-01-04T00:13:45.140Z,4.45
2019-01-04T00:16:13.160Z,4.45
2019-01-04T00:18:41.272Z,4.15
2019-01-04T00:21:09.251Z,4.28
2019-01-04T00:23:37.258Z,4.43
2019-01-04T00:26:05.244Z,4.90
2019-01-04T00:28:33.267Z,4.62
2019-01-04T00:31:01.258Z,4.97
2019-01-04T00:33:29.287Z,4.93
2019-01-04T00:35:57.217Z,4.70
2019-01-04T00:38:25.714Z,4.62
2019-01-04T00:40:54.224Z,4.55
2019-01-04T00:43:21.900Z,4.82
2019-01-04T00:45:50.011Z,5.22
2019-01-04T00:48:17.976Z,5.50
2019-01-04T00:50:45.897Z,5.22
2019-01-04T00:53:13.840Z,5.03
2019-01-04T00:55:44.747Z,5.43
2019-01-04T00:58:30.238Z,5.47
2019-01-04T01:01:07.900Z,5.43
2019-01-04T01:03:54.598Z,5.18
2019-01-04T01:06:49.239Z,5.55
2019-01-04T01:09:26.403Z,5.03
2019-01-04T01:12:12.219Z,5.28
2019-01-04T01:14:58.387Z,5.10
2019-01-04T01:17:36.396Z,5.05
2019-01-04T01:20:12.944Z,5.72
2019-01-04T01:23:00.062Z,5.05
2019-01-04T01:25:52.834Z,6.15
2019-01-04T01:28:40.008Z,5.93
2019-01-04T01:31:17.647Z,5.47
2019-01-04T01:34:13.968Z,6.30
2019-01-04T01:36:59.785Z,6.15
2019-01-04T01:39:51.501Z,6.10
2019-01-04T01:42:37.964Z,5.97
2019-01-04T01:45:22.143Z,5.65
2019-01-04T01:47:51.992Z,5.78
2019-01-04T01:50:37.732Z,6.53
2019-01-04T01:53:05.925Z,5.50
2019-01-04T01:55:34.432Z,6.15
2019-01-04T01:58:02.194Z,6.50
2019-01-04T02:00:30.285Z,6.20
2019-01-04T02:02:57.965Z,6.50
2019-01-04T02:05:25.934Z,5.85
2019-01-04T02:07:54.377Z,5.97
2019-01-04T02:10:22.081Z,5.62
2019-01-04T02:12:49.779Z,6.25
2019-01-04T02:15:18.609Z,6.43
2019-01-04T02:17:46.517Z,6.03
2019-01-04T02:20:14.488Z,5.87
2019-01-04T02:22:42.992Z,6.53
2019-01-04T02:25:10.949Z,5.57
2019-01-04T02:27:38.931Z,6.30
2019-01-04T02:30:07.658Z,6.03
2019-01-04T02:32:35.614Z,6.07
2019-01-04T02:35:03.628Z,6.12
2019-01-04T02:37:31.354Z,5.90
2019-01-04T02:39:59.300Z,5.82
2019-01-04T02:42:27.288Z,6.40
2019-01-04T02:44:55.288Z,6.10
2019-01-04T02:47:23.287Z,5.40
2019-01-04T02:49:51.932Z,6.03
2019-01-04T02:52:20.344Z,5.50
2019-01-04T02:54:50.448Z,6.00
2019-01-04T02:57:18.417Z,5.70
2019-01-04T02:59:46.721Z,5.18
2019-01-04T03:02:14.418Z,5.50
2019-01-04T03:04:42.086Z,5.70
2019-01-04T03:07:10.416Z,5.68
2019-01-04T03:09:38.704Z,5.87
2019-01-04T03:12:06.414Z,6.20
2019-01-04T03:14:34.828Z,5.85
2019-01-04T03:17:02.812Z,6.05
2019-01-04T03:19:30.804Z,6.97
2019-01-04T03:21:58.826Z,7.47
2019-01-04T03:24:26.831Z,7.45
2019-01-04T03:26:56.118Z,7.95
2019-01-04T03:29:24.266Z,7.37
2019-01-04T03:31:52.339Z,8.77
2019-01-04T03:34:20.908Z,9.38
2019-01-04T03:36:48.888Z,8.85
2019-01-04T03:39:16.898Z,10.25
2019-01-04T03:41:44.609Z,9.23
2019-01-04T03:44:12.581Z,9.48
2019-01-04T03:46:40.675Z,10.65
2019-01-04T03:49:08.398Z,11.25
2019-01-04T03:51:36.389Z,9.68
2019-01-04T03:54:04.389Z,11.55
2019-01-04T03:56:32.357Z,11.63
2019-01-04T03:59:00.737Z,12.13
2019-01-04T04:01:28.712Z,12.10
2019-01-04T04:03:56.723Z,11.98
2019-01-04T04:06:24.691Z,11.43
2019-01-04T04:08:53.245Z,11.73
2019-01-04T04:11:21.613Z,11.27
2019-01-04T04:13:49.613Z,11.55
2019-01-04T04:16:17.548Z,12.25
2019-01-04T04:18:45.511Z,12.32
2019-01-04T04:21:13.245Z,10.63
2019-01-04T04:23:41.223Z,10.93
2019-01-04T04:26:09.183Z,11.02
2019-01-04T04:28:36.891Z,9.98
2019-01-04T04:31:04.837Z,11.02
2019-01-04T04:33:32.790Z,10.15
2019-01-04T04:36:00.793Z,10.32
2019-01-04T04:38:28.785Z,9.77
2019-01-04T04:40:56.428Z,9.65
2019-01-04T04:43:24.423Z,10.50
2019-01-04T04:45:52.402Z,9.57
2019-01-04T04:48:20.329Z,11.05
2019-01-04T04:50:48.039Z,11.98
2019-01-04T04:53:15.740Z,12.27
2019-01-04T04:55:43.692Z,13.60
2019-01-04T04:58:11.859Z,15.43
2019-01-04T05:00:39.868Z,13.88
2019-01-04T05:03:07.881Z,13.88
2019-01-04T05:05:35.910Z,12.55
2019-01-04T05:08:03.881Z,13.40
2019-01-04T05:10:31.915Z,12.63
2019-01-04T05:13:00.016Z,12.65
2019-01-04T05:15:28.004Z,11.15
2019-01-04T05:17:55.719Z,11.50
2019-01-04T05:20:23.895Z,10.80
2019-01-04T05:22:51.862Z,10.90
2019-01-04T05:25:20.426Z,10.27
2019-01-04T05:27:48.440Z,9.10
2019-01-04T05:30:16.397Z,9.80
2019-01-04T05:32:44.386Z,9.20
2019-01-04T05:35:12.358Z,10.05
2019-01-04T05:37:40.604Z,8.80
2019-01-04T05:40:08.585Z,9.60
2019-01-04T05:42:37.077Z,8.57
2019-01-04T05:45:05.642Z,10.07
2019-01-04T05:47:33.631Z,10.10
2019-01-04T05:50:01.637Z,8.25
2019-01-04T05:52:29.579Z,8.38
2019-01-04T05:54:57.530Z,8.30
2019-01-04T05:57:26.859Z,8.25
2019-01-04T05:59:55.142Z,8.50
2019-01-04T06:02:24.394Z,8.43
2019-01-04T06:04:52.840Z,9.30
2019-01-04T06:07:20.822Z,7.25
2019-01-04T06:09:48.765Z,7.50
2019-01-04T06:12:16.228Z,7.07
2019-01-04T06:14:44.555Z,6.93
2019-01-04T06:17:12.268Z,6.90
2019-01-04T06:19:40.175Z,7.05
2019-01-04T06:22:08.099Z,7.20
2019-01-04T06:24:35.819Z,8.43
2019-01-04T06:27:04.078Z,8.65
2019-01-04T06:29:32.070Z,7.53
2019-01-04T06:32:00.022Z,7.68
2019-01-04T06:34:28.992Z,8.10
2019-01-04T06:36:56.431Z,7.82
2019-01-04T06:39:24.829Z,6.10
2019-01-04T06:41:53.021Z,5.12
2019-01-04T06:44:20.723Z,7.47
2019-01-04T06:47:20.898Z,5.78
2019-01-04T06:49:49.285Z,6.18
2019-01-04T06:52:17.343Z,7.12
2019-01-04T06:55:03.265Z,6.40
2019-01-04T06:57:31.266Z,6.07
2019-01-04T06:59:58.980Z,5.85
2019-01-04T07:02:26.839Z,5.53
2019-01-04T07:04:54.840Z,5.10
2019-01-04T07:07:22.784Z,5.28
2019-01-04T07:09:50.765Z,6.03
2019-01-04T07:12:18.735Z,5.25
2019-01-04T07:14:46.443Z,5.25
2019-01-04T07:17:14.528Z,4.80
2019-01-04T07:19:42.524Z,5.07
2019-01-04T07:22:10.527Z,4.85
2019-01-04T07:24:38.235Z,4.57
2019-01-04T07:27:05.926Z,5.10
2019-01-04T07:29:33.892Z,5.05
2019-01-04T07:32:01.872Z,4.65
2019-01-04T07:34:29.809Z,4.37
2019-01-04T07:36:57.798Z,4.05
2019-01-04T07:39:25.873Z,4.10
2019-01-04T07:41:54.969Z,3.65
2019-01-04T07:44:22.952Z,3.80
2019-01-04T07:46:51.232Z,4.22
2019-01-04T07:49:18.872Z,3.87
2019-01-04T07:51:46.899Z,3.67
2019-01-04T07:54:14.984Z,3.33
2019-01-04T07:56:42.975Z,3.60
2019-01-04T07:59:10.951Z,4.22
2019-01-04T08:01:39.306Z,5.05
2019-01-04T08:04:07.263Z,5.68
2019-01-04T08:06:34.935Z,4.05
2019-01-04T08:09:02.620Z,4.18
2019-01-04T08:11:30.595Z,3.45
2019-01-04T08:13:58.346Z,3.90
2019-01-04T08:16:26.354Z,4.30
2019-01-04T08:18:54.607Z,4.45
2019-01-04T08:21:22.582Z,4.70
2019-01-04T08:23:50.283Z,4.32
2019-01-04T08:26:18.263Z,4.20
2019-01-04T08:28:46.274Z,5.00
2019-01-04T08:31:14.275Z,5.00
2019-01-04T08:33:41.993Z,5.70
2019-01-04T08:36:09.973Z,5.93
2019-01-04T08:38:38.287Z,8.00
2019-01-04T08:41:06.014Z,6.40
2019-01-04T08:43:34.025Z,6.85
2019-01-04T08:46:01.472Z,6.50
2019-01-04T08:48:29.934Z,7.68
2019-01-04T08:50:57.920Z,8.27
2019-01-04T08:53:45.114Z,8.48
2019-01-04T08:56:12.833Z,8.70
2019-01-04T08:58:40.858Z,10.18
2019-01-04T09:01:08.908Z,9.20
2019-01-04T09:03:37.362Z,9.82
2019-01-04T09:06:05.377Z,10.35
2019-01-04T09:08:33.357Z,8.70
2019-01-04T09:11:01.359Z,9.00
2019-01-04T09:13:29.365Z,8.55
2019-01-04T09:15:57.369Z,10.27
2019-01-04T09:18:25.920Z,10.52
2019-01-04T09:20:53.788Z,10.70
2019-01-04T09:23:21.540Z,11.57
2019-01-04T09:25:49.284Z,12.48
2019-01-04T09:28:18.098Z,12.63
2019-01-04T09:30:45.229Z,15.55
2019-01-04T09:33:13.815Z,13.80
2019-01-04T09:35:41.787Z,15.55
2019-01-04T09:38:09.901Z,16.75
2019-01-04T09:40:37.867Z,16.95
2019-01-04T09:43:05.969Z,18.35
2019-01-04T09:45:33.949Z,17.85
2019-01-04T09:48:03.196Z,18.27
2019-01-04T09:50:30.899Z,15.93
2019-01-04T09:52:58.694Z,17.65
2019-01-04T09:55:26.437Z,20.00
2019-01-04T09:57:54.444Z,21.37
2019-01-04T10:00:22.504Z,22.42
2019-01-04T10:02:50.798Z,23.17
2019-01-04T10:05:18.505Z,25.62
2019-01-04T10:07:46.542Z,23.77
2019-01-04T10:10:14.288Z,23.73
2019-01-04T10:12:42.323Z,26.80
2019-01-04T10:15:11.293Z,25.75
2019-01-04T10:17:39.261Z,24.83
2019-01-04T10:20:07.499Z,25.40
2019-01-04T10:22:36.107Z,25.95
2019-01-04T10:25:04.119Z,25.20
2019-01-04T10:27:31.832Z,27.17
2019-01-04T10:29:59.875Z,26.15
2019-01-04T10:32:27.921Z,25.90
2019-01-04T10:34:55.645Z,26.00
2019-01-04T10:37:23.351Z,26.08
2019-01-04T10:39:51.102Z,25.88
2019-01-04T10:42:18.800Z,24.67
2019-01-04T10:44:47.324Z,27.70
2019-01-04T10:47:15.010Z,25.08
2019-01-04T10:49:42.974Z,25.75
2019-01-04T10:52:11.017Z,26.10
2019-01-04T10:54:39.584Z,27.00
2019-01-04T10:57:07.339Z,24.65
2019-01-04T10:59:35.723Z,22.60
2019-01-04T11:02:03.724Z,24.75
2019-01-04T11:04:31.751Z,23.83
2019-01-04T11:07:00.094Z,21.98
2019-01-04T11:09:28.063Z,21.65
2019-01-04T11:11:56.099Z,20.88
2019-01-04T11:14:24.207Z,21.50
2019-01-04T11:16:51.904Z,20.15
2019-01-04T11:19:20.406Z,18.45
2019-01-04T11:21:48.392Z,18.10
2019-01-04T11:24:20.713Z,17.50
2019-01-04T11:26:50.565Z,16.42
2019-01-04T11:29:36.838Z,16.50
2019-01-04T11:32:26.843Z,16.98
2019-01-04T11:35:12.862Z,15.45
2019-01-04T11:37:46.625Z,14.20
2019-01-04T11:40:39.207Z,14.60
2019-01-04T11:43:12.301Z,14.43
2019-01-04T11:45:59.518Z,12.85
2019-01-04T11:48:34.351Z,13.20
2019-01-04T11:51:17.614Z,12.07
2019-01-04T11:53:45.662Z,10.75
2019-01-04T11:56:13.712Z,11.98
2019-01-04T11:58:42.305Z,10.50
2019-01-04T12:01:10.012Z,10.18
2019-01-04T12:03:38.050Z,10.13
2019-01-04T12:06:05.976Z,9.13
2019-01-04T12:08:33.974Z,9.00
2019-01-04T12:11:01.415Z,7.30
2019-01-04T12:13:29.887Z,6.90
2019-01-04T12:15:58.471Z,7.07
2019-01-04T12:18:26.446Z,6.53
2019-01-04T12:20:54.494Z,6.15
2019-01-04T12:23:22.288Z,6.10
2019-01-04T12:25:50.245Z,6.00
2019-01-04T12:28:18.243Z,5.85
2019-01-04T12:30:45.990Z,5.30
2019-01-04T12:33:14.060Z,5.40
2019-01-04T12:35:42.094Z,5.37
2019-01-04T12:38:10.202Z,4.60
2019-01-04T12:40:38.164Z,4.68
2019-01-04T12:43:06.247Z,5.35
2019-01-04T12:45:34.293Z,5.03
2019-01-04T12:48:02.367Z,5.10
2019-01-04T12:50:30.766Z,4.95
2019-01-04T12:52:58.746Z,5.35
2019-01-04T12:55:26.709Z,5.20
2019-01-04T12:57:55.287Z,6.40
2019-01-04T13:00:23.784Z,5.62
2019-01-04T13:02:51.776Z,6.00
2019-01-04T13:05:20.405Z,6.57
2019-01-04T13:07:48.759Z,6.47
2019-01-04T13:10:16.781Z,6.80
2019-01-04T13:12:45.249Z,7.53
2019-01-04T13:15:13.430Z,6.90
2019-01-04T13:17:41.425Z,7.22
2019-01-04T13:20:09.591Z,6.30
2019-01-04T13:22:37.544Z,7.43
2019-01-04T13:25:06.208Z,7.45
2019-01-04T13:27:35.024Z,7.35
2019-01-04T13:30:02.772Z,9.38
2019-01-04T13:32:30.785Z,9.07
2019-01-04T13:34:59.515Z,8.15
2019-01-04T13:37:28.005Z,9.52
2019-01-04T13:39:56.089Z,8.70
2019-01-04T13:42:24.337Z,9.85
2019-01-04T13:44:52.065Z,9.40
2019-01-04T13:47:20.020Z,10.32
2019-01-04T13:49:48.548Z,10.20
2019-01-04T13:52:16.633Z,9.85
2019-01-04T13:54:44.630Z,10.75
2019-01-04T13:57:13.774Z,10.23
2019-01-04T13:59:41.854Z,9.52
2019-01-04T14:02:10.452Z,10.32
2019-01-04T14:04:38.491Z,10.27
2019-01-04T14:07:06.505Z,10.18
2019-01-04T14:09:34.407Z,10.88
2019-01-04T14:12:02.875Z,12.52
2019-01-04T14:14:30.903Z,16.67
2019-01-04T14:16:59.156Z,17.73
2019-01-04T14:19:28.460Z,20.60
2019-01-04T14:21:56.442Z,20.45
2019-01-04T14:24:24.185Z,21.08
2019-01-04T14:26:52.221Z,21.75
2019-01-04T14:29:20.649Z,19.27
2019-01-04T14:31:48.417Z,21.87
2019-01-04T14:34:16.511Z,22.02
2019-01-04T14:36:43.950Z,22.65
2019-01-04T14:39:11.907Z,22.25
2019-01-04T14:41:40.323Z,22.30
2019-01-04T14:44:08.032Z,22.27
2019-01-04T14:46:36.037Z,21.30
2019-01-04T14:49:04.547Z,23.55
2019-01-04T14:51:32.538Z,20.42
2019-01-04T14:54:00.521Z,21.27
2019-01-04T14:56:28.523Z,28.52
2019-01-04T14:58:56.547Z,20.75
2019-01-04T15:01:24.580Z,19.23
2019-01-04T15:03:53.189Z,19.85
2019-01-04T15:06:21.192Z,21.42
2019-01-04T15:08:49.213Z,18.48
2019-01-04T15:11:16.950Z,18.98
2019-01-04T15:13:44.655Z,18.80
2019-01-04T15:16:12.397Z,17.85
2019-01-04T15:18:40.979Z,19.15
2019-01-04T15:21:09.321Z,19.15
2019-01-04T15:23:37.899Z,18.70
2019-01-04T15:26:06.178Z,19.52
2019-01-04T15:28:34.210Z,19.23
2019-01-04T15:31:02.479Z,18.15
2019-01-04T15:33:30.672Z,20.98
2019-01-04T15:35:58.353Z,20.58
2019-01-04T15:38:26.363Z,20.70
2019-01-04T15:40:54.372Z,18.27
2019-01-04T15:43:22.415Z,20.83
2019-01-04T15:45:50.381Z,20.55
2019-01-04T15:48:18.431Z,20.77
2019-01-04T15:50:46.131Z,19.23
2019-01-04T15:53:13.861Z,19.50
2019-01-04T15:55:41.757Z,19.08
2019-01-04T15:58:10.289Z,18.33
2019-01-04T16:00:38.034Z,19.12
2019-01-04T16:03:05.500Z,19.25
2019-01-04T16:05:33.513Z,18.55
2019-01-04T16:08:01.536Z,19.02
2019-01-04T16:10:29.545Z,17.75
2019-01-04T16:12:57.510Z,17.92
2019-01-04T16:15:25.216Z,17.73
2019-01-04T16:17:53.292Z,17.98
2019-01-04T16:20:21.749Z,16.98
2019-01-04T16:22:49.709Z,14.82
2019-01-04T16:25:21.976Z,17.83
2019-01-04T16:27:50.135Z,15.90
2019-01-04T16:30:18.704Z,15.57
2019-01-04T16:32:46.826Z,16.85
2019-01-04T16:35:14.541Z,15.77
2019-01-04T16:37:42.487Z,16.27
2019-01-04T16:40:10.724Z,16.00
2019-01-04T16:42:38.715Z,16.02
2019-01-04T16:45:06.716Z,16.27
2019-01-04T16:47:34.726Z,15.65
2019-01-04T16:50:02.659Z,17.05
2019-01-04T16:52:30.130Z,15.93
2019-01-04T16:54:58.117Z,17.25
2019-01-04T16:57:26.090Z,16.42
2019-01-04T16:59:54.058Z,18.62
2019-01-04T17:02:22.104Z,18.27
2019-01-04T17:04:49.515Z,19.35
2019-01-04T17:07:17.265Z,18.45
2019-01-04T17:09:45.238Z,19.62
2019-01-04T17:12:12.696Z,20.40
2019-01-04T17:14:40.389Z,25.37
2019-01-04T17:17:08.349Z,31.35
2019-01-04T17:19:40.804Z,21.20
2019-01-04T17:22:03.813Z,21.45
2019-01-04T17:24:31.996Z,27.05
2019-01-04T17:26:59.962Z,23.73
2019-01-04T17:29:27.959Z,22.83
2019-01-04T17:31:55.962Z,22.25
2019-01-04T17:34:24.014Z,21.30
2019-01-04T17:36:51.974Z,20.85
2019-01-04T17:39:20.606Z,20.60
2019-01-04T17:41:48.318Z,21.52
2019-01-04T17:44:16.309Z,20.65
2019-01-04T17:46:44.308Z,21.85
2019-01-04T17:49:11.986Z,21.62
2019-01-04T17:51:39.974Z,21.02
2019-01-04T17:54:07.996Z,21.02
2019-01-04T17:56:35.977Z,21.10
2019-01-04T17:59:03.952Z,21.25
2019-01-04T18:01:31.929Z,19.70
2019-01-04T18:03:59.697Z,20.20
2019-01-04T18:06:27.642Z,20.17
2019-01-04T18:08:55.655Z,18.35
2019-01-04T18:11:23.677Z,18.40
2019-01-04T18:13:51.627Z,19.48
2019-01-04T18:16:19.785Z,17.70
2019-01-04T18:18:47.807Z,18.45
2019-01-04T18:21:15.746Z,18.33
2019-01-04T18:23:43.429Z,17.62
2019-01-04T18:26:11.468Z,19.20
2019-01-04T18:28:39.421Z,17.83
2019-01-04T18:31:07.491Z,19.08
2019-01-04T18:33:35.483Z,19.20
2019-01-04T18:36:03.534Z,19.15
2019-01-04T18:38:32.685Z,18.77
2019-01-04T18:41:00.627Z,20.45
2019-01-04T18:43:28.846Z,26.95
2019-01-04T18:45:56.846Z,21.35
2019-01-04T18:48:24.808Z,20.90
2019-01-04T18:50:53.790Z,21.98
2019-01-04T18:53:20.347Z,21.90
2019-01-04T18:55:48.412Z,19.70
2019-01-04T18:58:16.414Z,18.10
2019-01-04T19:00:44.416Z,19.40
2019-01-04T19:03:13.009Z,23.70
2019-01-04T19:05:41.471Z,20.90
2019-01-04T19:08:09.532Z,18.10
2019-01-04T19:10:37.487Z,17.77
2019-01-04T19:13:05.477Z,17.02
2019-01-04T19:15:33.875Z,17.17
2019-01-04T19:18:02.159Z,17.85
2019-01-04T19:20:30.150Z,16.50
2019-01-04T19:22:58.495Z,17.85
2019-01-04T19:25:26.970Z,16.85
2019-01-04T19:27:55.499Z,16.48
2019-01-04T19:30:23.513Z,16.80
2019-01-04T19:32:52.000Z,16.37
2019-01-04T19:35:20.567Z,16.00
2019-01-04T19:37:49.034Z,16.15
2019-01-04T19:40:17.045Z,14.32
2019-01-04T19:42:45.018Z,15.05
2019-01-04T19:45:12.772Z,15.88
2019-01-04T19:47:40.450Z,13.68
2019-01-04T19:50:15.721Z,16.75
2019-01-04T19:52:43.770Z,15.18
2019-01-04T19:55:11.455Z,14.77
2019-01-04T19:57:39.427Z,16.30
2019-01-04T20:00:08.050Z,16.17
2019-01-04T20:02:35.994Z,15.57
2019-01-04T20:05:04.012Z,14.68
2019-01-04T20:08:20.898Z,15.65
2019-01-04T20:11:20.731Z,14.68
2019-01-04T20:14:31.643Z,14.35
2019-01-04T20:17:18.613Z,14.68
2019-01-04T20:20:08.048Z,15.02
2019-01-04T20:22:54.498Z,13.30
2019-01-04T20:25:51.049Z,12.95
2019-01-04T20:28:35.136Z,13.52
2019-01-04T20:31:37.135Z,12.77
2019-01-04T20:34:26.963Z,13.48
2019-01-04T20:37:28.476Z,11.40
2019-01-04T20:40:21.332Z,13.82
2019-01-04T20:43:18.751Z,11.98
2019-01-04T20:46:05.736Z,12.82
2019-01-04T20:48:51.407Z,14.23
2019-01-04T20:51:56.419Z,11.40
2019-01-04T20:54:43.427Z,13.27
2019-01-04T20:57:21.138Z,12.10
2019-01-04T21:00:10.922Z,12.10
2019-01-04T21:03:09.679Z,11.07
2019-01-04T21:05:56.433Z,10.07
2019-01-04T21:08:41.816Z,9.73
2019-01-04T21:11:41.049Z,10.13
2019-01-04T21:14:28.529Z,10.18
2019-01-04T21:17:14.270Z,10.52
2019-01-04T21:20:10.368Z,9.52
2019-01-04T21:22:54.195Z,9.45
2019-01-04T21:25:40.123Z,9.77
2019-01-04T21:28:25.621Z,9.27
2019-01-04T21:31:26.263Z,9.57
2019-01-04T21:34:13.911Z,8.18
2019-01-04T21:36:59.665Z,8.60
2019-01-04T21:39:45.066Z,8.27
2019-01-04T21:42:36.339Z,8.80
2019-01-04T21:45:22.051Z,7.00
2019-01-04T21:48:14.029Z,8.45
2019-01-04T21:51:03.552Z,9.18
2019-01-04T21:53:48.880Z,8.90
2019-01-04T21:56:34.541Z,8.90
2019-01-04T21:59:28.583Z,7.78
2019-01-04T22:02:14.314Z,8.07
2019-01-04T22:05:17.824Z,8.52
2019-01-04T22:08:03.837Z,8.10
2019-01-04T22:10:49.933Z,7.75
2019-01-04T22:13:34.852Z,8.13
2019-01-04T22:16:27.724Z,7.10
2019-01-04T22:19:17.502Z,7.10
2019-01-04T22:22:16.131Z,7.30
2019-01-04T22:25:02.372Z,6.97
2019-01-04T22:27:47.910Z,6.62
2019-01-04T22:30:37.454Z,6.32
2019-01-04T22:33:22.745Z,5.65
2019-01-04T22:36:16.623Z,6.37
2019-01-04T22:39:02.304Z,6.00
2019-01-04T22:42:05.721Z,5.20
2019-01-04T22:44:52.823Z,6.07
2019-01-04T22:47:40.136Z,5.15
2019-01-04T22:50:25.827Z,4.97
2019-01-04T22:53:30.980Z,5.57
2019-01-04T22:56:18.010Z,5.00
2019-01-04T22:59:03.922Z,4.78
2019-01-04T23:01:50.717Z,5.53
2019-01-04T23:04:49.710Z,4.68
2019-01-04T23:07:48.213Z,4.45
2019-01-04T23:10:38.181Z,4.62
2019-01-04T23:13:41.451Z,4.60
2019-01-04T23:16:28.936Z,4.70
2019-01-04T23:19:21.362Z,5.57
2019-01-04T23:22:11.715Z,4.95
2019-01-04T23:25:01.589Z,4.93
2019-01-04T23:27:54.827Z,4.70
2019-01-04T23:30:40.787Z,4.50
2019-01-04T23:33:31.316Z,4.03
2019-01-04T23:36:16.865Z,4.28
2019-01-04T23:39:06.665Z,4.45
2019-01-04T23:41:53.765Z,4.15
2019-01-04T23:44:38.642Z,4.22
2019-01-04T23:47:30.988Z,4.65
2019-01-04T23:50:21.181Z,3.92
2019-01-04T23:53:17.302Z,3.30
2019-01-04T23:56:09.868Z,3.95
2019-01-04T23:58:55.764Z,3.35
